Time,TemperatureF,DewpointF,PressureIn,WindDirection,WindDirectionDegrees,WindSpeedMPH,WindSpeedGustMPH,Humidity,HourlyPrecipIn,Conditions,Clouds,dailyrainin,SoftwareType,DateUTC
2013-07-29 10:12:00,62.0,56.5,29.83,WSW,247,4.0,4.0,82,0.00,,,0.00,WUHU21623XXSP,2013-07-29 14:12:00,
2013-07-29 10:17:00,62.5,56.6,29.83,NW,315,0.0,4.0,81,0.00,,,0.00,WUHU21623XXSP,2013-07-29 14:17:00,
2013-07-29 10:22:00,62.7,56.2,29.84,WNW,292,3.6,3.6,79,0.00,,,0.00,WUHU21623XXSP,2013-07-29 14:22:00,
2013-07-29 10:29:00,63.1,55.9,29.83,West,270,0.0,3.6,77,0.00,,,0.00,WUHU21623XXSP,2013-07-29 14:29:00,
2013-07-29 10:34:00,63.1,55.5,29.84,WSW,247,2.9,2.9,76,0.00,,,0.00,WUHU21623XXSP,2013-07-29 14:34:00,
2013-07-29 10:39:00,63.3,55.7,29.84,NW,315,1.6,2.9,76,0.00,,,0.00,WUHU21623XXSP,2013-07-29 14:39:00,
2013-07-29 10:44:00,63.3,55.4,29.84,WNW,292,1.6,1.6,75,0.00,,,0.00,WUHU21623XXSP,2013-07-29 14:44:00,
2013-07-29 10:49:00,63.4,55.1,29.84,North,0,0.0,1.6,74,0.00,,,0.00,WUHU21623XXSP,2013-07-29 14:49:00,
2013-07-29 10:54:00,63.4,55.1,29.84,North,0,0.0,0.0,74,0.00,,,0.00,WUHU21623XXSP,2013-07-29 14:54:00,
2013-07-29 10:59:00,63.6,55.3,29.84,West,270,3.1,3.1,74,0.00,,,0.00,WUHU21623XXSP,2013-07-29 14:59:00,
2013-07-29 11:04:00,63.6,55.3,29.84,WNW,292,4.5,4.5,74,0.00,,,0.00,WUHU21623XXSP,2013-07-29 15:04:00,
2013-07-29 11:09:00,63.6,55.3,29.84,West,270,1.1,4.5,74,0.00,,,0.00,WUHU21623XXSP,2013-07-29 15:09:00,
2013-07-29 11:14:00,63.8,55.5,29.85,North,0,1.1,1.1,74,0.00,,,0.00,WUHU21623XXSP,2013-07-29 15:14:00,
2013-07-29 11:20:00,63.6,54.9,29.84,WNW,292,2.7,2.7,73,0.00,,,0.00,WUHU21623XXSP,2013-07-29 15:20:00,
2013-07-29 11:25:00,63.8,54.7,29.85,NNW,337,6.3,6.3,72,0.00,,,0.00,WUHU21623XXSP,2013-07-29 15:25:00,
2013-07-29 11:31:00,64.3,54.8,29.85,WSW,247,3.8,6.3,71,0.00,,,0.00,WUHU21623XXSP,2013-07-29 15:31:00,
2013-07-29 11:36:00,64.3,54.8,29.86,NW,315,3.6,3.8,71,0.00,,,0.00,WUHU21623XXSP,2013-07-29 15:36:00,
2013-07-29 11:41:00,64.5,55.4,29.85,West,270,0.0,3.6,72,0.00,,,0.00,WUHU21623XXSP,2013-07-29 15:41:00,
2013-07-29 11:46:00,65.2,56.1,29.86,WSW,247,0.0,0.0,72,0.00,,,0.00,WUHU21623XXSP,2013-07-29 15:46:00,
2013-07-29 11:51:00,65.4,55.9,29.86,South,180,2.0,2.0,71,0.00,,,0.00,WUHU21623XXSP,2013-07-29 15:51:00,
2013-07-29 11:56:00,65.6,55.7,29.85,NNW,337,5.8,5.8,70,0.00,,,0.00,WUHU21623XXSP,2013-07-29 15:56:00,
2013-07-29 12:02:00,65.8,55.9,29.86,NW,315,3.8,5.8,70,0.00,,,0.00,WUHU21623XXSP,2013-07-29 16:02:00,
2013-07-29 12:07:00,65.4,55.1,29.86,WSW,247,0.0,3.8,69,0.00,,,0.00,WUHU21623XXSP,2013-07-29 16:07:00,
2013-07-29 12:14:00,65.2,54.9,29.86,NNW,337,0.0,2.9,69,0.00,,,0.00,WUHU21623XXSP,2013-07-29 16:14:00,
2013-07-29 12:19:00,65.1,55.2,29.86,NW,315,0.0,2.9,70,0.00,,,0.00,WUHU21623XXSP,2013-07-29 16:19:00,
2013-07-29 12:24:00,65.2,55.3,29.86,NW,315,0.0,0.0,70,0.00,,,0.00,WUHU21623XXSP,2013-07-29 16:24:00,
2013-07-29 12:29:00,65.4,55.5,29.85,WNW,292,0.0,0.0,70,0.00,,,0.00,WUHU21623XXSP,2013-07-29 16:29:00,
2013-07-29 12:34:00,66.3,56.0,29.86,West,270,0.0,0.0,69,0.00,,,0.00,WUHU21623XXSP,2013-07-29 16:34:00,
2013-07-29 12:39:00,66.9,56.6,29.86,WSW,247,5.4,5.4,69,0.00,,,0.00,WUHU21623XXSP,2013-07-29 16:39:00,
2013-07-29 12:44:00,67.2,56.5,29.86,NW,315,0.0,5.4,68,0.00,,,0.00,WUHU21623XXSP,2013-07-29 16:44:00,
2013-07-29 12:49:00,67.2,56.5,29.86,SSW,202,6.9,6.9,68,0.00,,,0.00,WUHU21623XXSP,2013-07-29 16:49:00,
2013-07-29 12:57:00,66.3,55.6,29.87,WSW,247,2.2,6.9,68,0.00,,,0.00,WUHU21623XXSP,2013-07-29 16:57:00,
2013-07-29 13:02:00,65.8,55.1,29.86,SW,225,0.0,2.2,68,0.00,,,0.00,WUHU21623XXSP,2013-07-29 17:02:00,
2013-07-29 13:07:00,65.8,55.1,29.87,NW,315,1.3,1.3,68,0.00,,,0.00,WUHU21623XXSP,2013-07-29 17:07:00,
2013-07-29 13:20:00,67.9,57.1,29.86,WNW,292,2.7,2.7,68,0.00,,,0.00,WUHU21623XXSP,2013-07-29 17:20:00,
2013-07-29 13:25:00,67.9,56.7,29.86,WNW,292,0.0,2.7,67,0.00,,,0.00,WUHU21623XXSP,2013-07-29 17:25:00,
2013-07-29 13:31:00,68.1,56.9,29.86,West,270,0.0,0.0,67,0.00,,,0.00,WUHU21623XXSP,2013-07-29 17:31:00,
2013-07-29 13:36:00,68.1,56.5,29.86,South,180,0.0,0.0,66,0.00,,,0.00,WUHU21623XXSP,2013-07-29 17:36:00,
2013-07-29 13:44:00,69.2,57.1,29.86,South,180,0.0,0.0,65,0.00,,,0.00,WUHU21623XXSP,2013-07-29 17:44:00,
2013-07-29 13:50:00,69.0,56.9,29.87,NNW,337,0.0,0.0,65,0.00,,,0.00,WUHU21623XXSP,2013-07-29 17:50:00,
2013-07-29 13:56:00,69.0,57.4,29.87,SSW,202,2.9,2.9,66,0.00,,,0.00,WUHU21623XXSP,2013-07-29 17:56:00,
2013-07-29 14:04:00,68.8,56.7,29.87,West,270,0.0,2.9,65,0.00,,,0.00,WUHU21623XXSP,2013-07-29 18:04:00,
2013-07-29 14:09:00,68.7,56.6,29.87,West,270,0.0,0.0,65,0.00,,,0.00,WUHU21623XXSP,2013-07-29 18:09:00,
2013-07-29 14:14:00,67.4,55.4,29.87,WNW,292,0.0,0.0,65,0.00,,,0.00,WUHU21623XXSP,2013-07-29 18:14:00,
2013-07-29 14:19:00,67.2,55.2,29.87,NW,315,0.0,0.0,65,0.00,,,0.00,WUHU21623XXSP,2013-07-29 18:19:00,
2013-07-29 14:24:00,67.0,55.0,29.87,NW,315,0.0,0.0,65,0.00,,,0.00,WUHU21623XXSP,2013-07-29 18:24:00,
2013-07-29 14:29:00,67.4,55.8,29.87,ESE,112,0.0,7.2,66,0.00,,,0.00,WUHU21623XXSP,2013-07-29 18:29:00,
2013-07-29 14:35:00,68.1,56.1,29.87,WNW,292,0.0,0.0,65,0.00,,,0.00,WUHU21623XXSP,2013-07-29 18:35:00,
2013-07-29 14:40:00,68.1,56.5,29.87,SSW,202,2.2,2.2,66,0.00,,,0.00,WUHU21623XXSP,2013-07-29 18:40:00,
2013-07-29 14:46:00,69.0,56.5,29.86,West,270,0.0,2.2,64,0.00,,,0.00,WUHU21623XXSP,2013-07-29 18:46:00,
2013-07-29 14:56:00,69.9,56.5,29.87,SW,225,0.0,0.0,62,0.00,,,0.00,WUHU21623XXSP,2013-07-29 18:56:00,
2013-07-29 15:02:00,70.3,56.4,29.87,West,270,0.0,0.0,61,0.00,,,0.00,WUHU21623XXSP,2013-07-29 19:02:00,
2013-07-29 15:07:00,70.6,56.7,29.87,West,270,0.0,0.0,61,0.00,,,0.00,WUHU21623XXSP,2013-07-29 19:07:00,
2013-07-29 15:16:00,70.6,57.1,29.87,WSW,247,0.0,0.0,62,0.00,,,0.00,WUHU21623XXSP,2013-07-29 19:16:00,
2013-07-29 15:24:00,71.2,57.7,29.87,SSW,202,0.0,0.0,62,0.00,,,0.00,WUHU21623XXSP,2013-07-29 19:24:00,
2013-07-29 15:32:00,71.5,57.1,29.87,SSW,202,0.0,0.0,60,0.00,,,0.00,WUHU21623XXSP,2013-07-29 19:32:00,
2013-07-29 15:39:00,71.7,57.3,29.87,West,270,0.0,0.0,60,0.00,,,0.00,WUHU21623XXSP,2013-07-29 19:39:00,
2013-07-29 15:50:00,71.0,56.6,29.88,South,180,0.0,0.0,60,0.00,,,0.00,WUHU21623XXSP,2013-07-29 19:50:00,
2013-07-29 16:03:00,71.0,56.6,29.88,SSW,202,0.0,0.0,60,0.00,,,0.00,WUHU21623XXSP,2013-07-29 20:03:00,
2013-07-29 16:09:00,71.2,56.3,29.88,North,0,0.9,0.9,59,0.00,,,0.00,WUHU21623XXSP,2013-07-29 20:09:00,
2013-07-29 16:14:00,71.2,56.3,29.88,NW,315,0.0,0.9,59,0.00,,,0.00,WUHU21623XXSP,2013-07-29 20:14:00,
2013-07-29 16:20:00,71.2,56.8,29.88,SW,225,0.0,0.0,60,0.00,,,0.00,WUHU21623XXSP,2013-07-29 20:20:00,
2013-07-29 16:25:00,71.0,56.6,29.88,SW,225,0.0,0.0,60,0.00,,,0.00,WUHU21623XXSP,2013-07-29 20:25:00,
2013-07-29 16:30:00,71.0,56.6,29.88,West,270,0.0,0.0,60,0.00,,,0.00,WUHU21623XXSP,2013-07-29 20:30:00,
2013-07-29 16:37:00,71.2,56.8,29.88,WSW,247,0.0,0.0,60,0.00,,,0.00,WUHU21623XXSP,2013-07-29 20:37:00,
2013-07-29 16:42:00,71.2,56.8,29.89,SSW,202,0.0,0.0,60,0.00,,,0.00,WUHU21623XXSP,2013-07-29 20:42:00,
2013-07-29 16:47:00,71.2,56.8,29.89,South,180,0.0,0.0,60,0.00,,,0.00,WUHU21623XXSP,2013-07-29 20:47:00,
2013-07-29 16:52:00,71.2,56.3,29.89,South,180,0.0,0.0,59,0.00,,,0.00,WUHU21623XXSP,2013-07-29 20:52:00,
2013-07-29 16:57:00,71.0,56.6,29.89,NW,315,0.0,0.0,60,0.00,,,0.00,WUHU21623XXSP,2013-07-29 20:57:00,
2013-07-29 17:02:00,71.0,56.6,29.89,SW,225,0.0,0.0,60,0.00,,,0.00,WUHU21623XXSP,2013-07-29 21:02:00,
2013-07-29 17:07:00,71.0,56.6,29.89,WSW,247,0.0,0.0,60,0.00,,,0.00,WUHU21623XXSP,2013-07-29 21:07:00,
2013-07-29 17:12:00,71.0,57.1,29.89,SW,225,1.6,1.6,61,0.00,,,0.00,WUHU21623XXSP,2013-07-29 21:12:00,
2013-07-29 17:19:00,71.7,57.3,29.89,SE,135,0.0,0.0,60,0.00,,,0.00,WUHU21623XXSP,2013-07-29 21:19:00,
2013-07-29 17:25:00,71.7,57.3,29.89,West,270,0.0,0.0,60,0.00,,,0.00,WUHU21623XXSP,2013-07-29 21:25:00,
2013-07-29 17:30:00,71.7,57.3,29.89,NW,315,3.8,3.8,60,0.00,,,0.00,WUHU21623XXSP,2013-07-29 21:30:00,
2013-07-29 17:49:00,71.4,56.5,29.89,West,270,0.0,0.0,59,0.00,,,0.00,WUHU21623XXSP,2013-07-29 21:49:00,
2013-07-29 17:56:00,70.6,56.2,29.89,South,180,0.0,0.0,60,0.00,,,0.00,WUHU21623XXSP,2013-07-29 21:56:00,
2013-07-29 18:01:00,70.5,56.6,29.89,WNW,292,0.0,0.0,61,0.00,,,0.00,WUHU21623XXSP,2013-07-29 22:01:00,
2013-07-29 18:07:00,70.5,56.6,29.89,SSW,202,0.0,0.0,61,0.00,,,0.00,WUHU21623XXSP,2013-07-29 22:07:00,
2013-07-29 18:12:00,70.6,57.1,29.89,West,270,0.0,0.0,62,0.00,,,0.00,WUHU21623XXSP,2013-07-29 22:12:00,
2013-07-29 18:17:00,70.8,56.9,29.89,NW,315,0.0,0.0,61,0.00,,,0.00,WUHU21623XXSP,2013-07-29 22:17:00,
2013-07-29 18:22:00,70.8,56.9,29.89,North,0,2.2,2.2,61,0.00,,,0.00,WUHU21623XXSP,2013-07-29 22:22:00,
2013-07-29 18:32:00,70.8,55.9,29.89,West,270,1.6,1.6,59,0.00,,,0.00,WUHU21623XXSP,2013-07-29 22:32:00,
2013-07-29 18:37:00,70.5,56.1,29.90,NW,315,3.8,3.8,60,0.00,,,0.00,WUHU21623XXSP,2013-07-29 22:37:00,
2013-07-29 18:42:00,69.9,55.6,29.90,West,270,0.0,3.8,60,0.00,,,0.00,WUHU21623XXSP,2013-07-29 22:42:00,
2013-07-29 18:47:00,69.9,56.0,29.90,NW,315,0.0,0.0,61,0.00,,,0.00,WUHU21623XXSP,2013-07-29 22:47:00,
2013-07-29 18:52:00,69.7,55.8,29.90,NNW,337,0.0,0.0,61,0.00,,,0.00,WUHU21623XXSP,2013-07-29 22:52:00,
2013-07-29 18:57:00,69.7,55.8,29.90,SW,225,0.0,0.0,61,0.00,,,0.00,WUHU21623XXSP,2013-07-29 22:57:00,
2013-07-29 19:02:00,69.9,56.5,29.90,WSW,247,4.3,4.3,62,0.00,,,0.00,WUHU21623XXSP,2013-07-29 23:02:00,
2013-07-29 19:07:00,69.9,56.0,29.90,South,180,0.0,4.3,61,0.00,,,0.00,WUHU21623XXSP,2013-07-29 23:07:00,
2013-07-29 19:12:00,70.3,56.4,29.90,WSW,247,5.6,5.6,61,0.00,,,0.00,WUHU21623XXSP,2013-07-29 23:12:00,
2013-07-29 19:17:00,70.3,56.4,29.90,WNW,292,0.0,5.6,61,0.00,,,0.00,WUHU21623XXSP,2013-07-29 23:17:00,
2013-07-29 19:23:00,70.3,56.4,29.90,NNW,337,0.0,0.0,61,0.00,,,0.00,WUHU21623XXSP,2013-07-29 23:23:00,
2013-07-29 19:28:00,70.1,56.2,29.90,West,270,0.0,0.0,61,0.00,,,0.00,WUHU21623XXSP,2013-07-29 23:28:00,
2013-07-29 19:36:00,69.7,56.3,29.91,West,270,0.0,0.0,62,0.00,,,0.00,WUHU21623XXSP,2013-07-29 23:36:00,
2013-07-29 19:41:00,69.4,56.0,29.91,NW,315,1.1,1.1,62,0.00,,,0.00,WUHU21623XXSP,2013-07-29 23:41:00,
2013-07-29 19:49:00,68.8,55.9,29.91,NW,315,1.6,1.6,63,0.00,,,0.00,WUHU21623XXSP,2013-07-29 23:49:00,
2013-07-29 19:54:00,68.7,55.8,29.91,NW,315,5.4,5.4,63,0.00,,,0.00,WUHU21623XXSP,2013-07-29 23:54:00,
2013-07-29 19:59:00,68.5,56.0,29.91,NW,315,0.0,5.4,64,0.00,,,0.00,WUHU21623XXSP,2013-07-29 23:59:00,
2013-07-29 20:07:00,68.1,56.1,29.91,NNW,337,0.0,0.0,65,0.00,,,0.00,WUHU21623XXSP,2013-07-30 00:07:00,
2013-07-29 20:13:00,67.9,55.9,29.92,NNW,337,0.0,0.0,65,0.00,,,0.00,WUHU21623XXSP,2013-07-30 00:13:00,
2013-07-29 20:18:00,67.9,55.9,29.92,NNE,22,0.0,0.0,65,0.00,,,0.00,WUHU21623XXSP,2013-07-30 00:18:00,
2013-07-29 20:23:00,67.6,55.6,29.92,NW,315,0.0,0.0,65,0.00,,,0.00,WUHU21623XXSP,2013-07-30 00:23:00,
2013-07-29 20:28:00,67.6,55.6,29.92,NW,315,0.0,0.0,65,0.00,,,0.00,WUHU21623XXSP,2013-07-30 00:28:00,
2013-07-29 20:33:00,67.4,55.8,29.92,NW,315,0.0,0.0,66,0.00,,,0.00,WUHU21623XXSP,2013-07-30 00:33:00,
2013-07-29 20:41:00,67.2,55.6,29.92,NW,315,0.0,0.0,66,0.00,,,0.00,WUHU21623XXSP,2013-07-30 00:41:00,
2013-07-29 20:46:00,67.0,55.4,29.93,NW,315,0.0,0.0,66,0.00,,,0.00,WUHU21623XXSP,2013-07-30 00:46:00,
2013-07-29 20:51:00,66.9,55.8,29.93,NW,315,0.0,0.0,67,0.00,,,0.00,WUHU21623XXSP,2013-07-30 00:51:00,
2013-07-29 20:56:00,66.3,55.2,29.93,NW,315,0.0,0.0,67,0.00,,,0.00,WUHU21623XXSP,2013-07-30 00:56:00,
2013-07-29 21:01:00,66.3,55.6,29.93,NW,315,0.0,0.0,68,0.00,,,0.00,WUHU21623XXSP,2013-07-30 01:01:00,
2013-07-29 21:08:00,66.1,55.4,29.93,NW,315,0.0,0.0,68,0.00,,,0.00,WUHU21623XXSP,2013-07-30 01:08:00,
2013-07-29 21:13:00,65.8,55.5,29.93,NW,315,0.0,0.0,69,0.00,,,0.00,WUHU21623XXSP,2013-07-30 01:13:00,
2013-07-29 21:19:00,65.4,55.1,29.93,NW,315,0.0,0.0,69,0.00,,,0.00,WUHU21623XXSP,2013-07-30 01:19:00,
2013-07-29 21:24:00,65.1,54.8,29.93,NW,315,0.0,0.0,69,0.00,,,0.00,WUHU21623XXSP,2013-07-30 01:24:00,
2013-07-29 21:32:00,64.3,54.8,29.93,NW,315,0.0,0.0,71,0.00,,,0.00,WUHU21623XXSP,2013-07-30 01:32:00,
2013-07-29 21:37:00,64.0,54.6,29.93,NW,315,0.0,0.0,71,0.00,,,0.00,WUHU21623XXSP,2013-07-30 01:37:00,
2013-07-29 21:42:00,63.6,54.2,29.94,NW,315,0.0,0.0,71,0.00,,,0.00,WUHU21623XXSP,2013-07-30 01:42:00,
2013-07-29 21:47:00,63.3,54.3,29.94,NW,315,0.0,0.0,72,0.00,,,0.00,WUHU21623XXSP,2013-07-30 01:47:00,
2013-07-29 21:52:00,62.9,54.2,29.94,NW,315,0.0,0.0,73,0.00,,,0.00,WUHU21623XXSP,2013-07-30 01:52:00,
2013-07-29 21:57:00,62.7,54.0,29.94,NW,315,0.0,0.0,73,0.00,,,0.00,WUHU21623XXSP,2013-07-30 01:57:00,
2013-07-29 22:02:00,62.2,53.6,29.94,NW,315,0.0,0.0,73,0.00,,,0.00,WUHU21623XXSP,2013-07-30 02:02:00,
2013-07-29 22:09:00,61.6,53.3,29.95,NW,315,0.0,0.0,74,0.00,,,0.00,WUHU21623XXSP,2013-07-30 02:09:00,
2013-07-29 22:14:00,61.6,53.7,29.95,NW,315,0.0,0.0,75,0.00,,,0.00,WUHU21623XXSP,2013-07-30 02:14:00,
2013-07-29 22:19:00,61.3,53.4,29.95,NW,315,0.0,0.0,75,0.00,,,0.00,WUHU21623XXSP,2013-07-30 02:19:00,
2013-07-29 22:24:00,60.9,53.0,29.95,NW,315,0.0,0.0,75,0.00,,,0.00,WUHU21623XXSP,2013-07-30 02:24:00,
2013-07-29 22:29:00,60.9,53.4,29.95,NW,315,0.0,0.0,76,0.00,,,0.00,WUHU21623XXSP,2013-07-30 02:29:00,
2013-07-29 22:36:00,60.4,52.9,29.96,NW,315,0.0,0.0,76,0.00,,,0.00,WUHU21623XXSP,2013-07-30 02:36:00,
2013-07-29 22:42:00,60.4,53.2,29.96,NW,315,0.0,0.0,77,0.00,,,0.00,WUHU21623XXSP,2013-07-30 02:42:00,
2013-07-29 22:47:00,60.2,53.0,29.96,NW,315,0.0,0.0,77,0.00,,,0.00,WUHU21623XXSP,2013-07-30 02:47:00,
2013-07-29 22:52:00,60.0,52.9,29.96,NW,315,0.0,0.0,77,0.00,,,0.00,WUHU21623XXSP,2013-07-30 02:52:00,
2013-07-29 22:57:00,59.8,52.7,29.96,NW,315,0.0,0.0,77,0.00,,,0.00,WUHU21623XXSP,2013-07-30 02:57:00,
2013-07-29 23:02:00,59.8,53.0,29.96,NNW,337,0.0,0.0,78,0.00,,,0.00,WUHU21623XXSP,2013-07-30 03:02:00,
2013-07-29 23:07:00,59.7,52.9,29.96,NNW,337,0.0,0.0,78,0.00,,,0.00,WUHU21623XXSP,2013-07-30 03:07:00,
2013-07-29 23:12:00,59.5,52.7,29.96,NNW,337,0.0,0.0,78,0.00,,,0.00,WUHU21623XXSP,2013-07-30 03:12:00,
2013-07-29 23:17:00,59.5,53.0,29.96,West,270,0.0,0.0,79,0.00,,,0.00,WUHU21623XXSP,2013-07-30 03:17:00,
2013-07-29 23:22:00,59.5,53.0,29.96,West,270,0.0,0.0,79,0.00,,,0.00,WUHU21623XXSP,2013-07-30 03:22:00,
2013-07-29 23:27:00,59.1,52.3,29.96,West,270,0.0,0.0,78,0.00,,,0.00,WUHU21623XXSP,2013-07-30 03:27:00,
2013-07-29 23:36:00,58.9,52.5,29.96,West,270,0.0,0.0,79,0.00,,,0.00,WUHU21623XXSP,2013-07-30 03:36:00,
2013-07-29 23:41:00,58.6,52.2,29.96,West,270,0.0,0.0,79,0.00,,,0.00,WUHU21623XXSP,2013-07-30 03:41:00,
2013-07-29 23:46:00,58.6,52.2,29.96,West,270,0.0,0.0,79,0.00,,,0.00,WUHU21623XXSP,2013-07-30 03:46:00,